Hillman, Minnesota
Current Conditions -  °F | °C
As of 7:38 AM on Saturday 20 Dec 2014 (Local Time) from KLXL Reporting Station
Haze Haze  
Wind Chill: 25°   Ceiling: 600
Heat Index: 32°   Visibility: 4mi
Dew Point: 28°   Wind: 8mph
Humidity: 87%   Direction: 170°S
Pressure: 30.09"   Gusts: NA
Location:  46°N, 93.89°W
Report Text: KLXL 201338Z AUTO 17007KT 4SM BR OVC006 00/M02 A3009 RMK AO2
Loading
Personal Weather Stations






























Interactive Weather Map New forecast layout! Learn more

10-Day Weather Forecast

Advertisements
Track Severe Weather on mobile